createdAt,value
2023-01-17T00:01:08.804Z,6.03
2023-01-17T00:03:35.120Z,5.28
2023-01-17T00:06:01.628Z,6.03
2023-01-17T00:08:28.107Z,6.50
2023-01-17T00:10:54.585Z,6.40
2023-01-17T00:13:20.993Z,6.10
2023-01-17T00:15:47.515Z,6.65
2023-01-17T00:18:14.189Z,6.28
2023-01-17T00:20:41.297Z,5.43
2023-01-17T00:23:08.193Z,6.18
2023-01-17T00:25:35.052Z,4.38
2023-01-17T00:28:01.715Z,7.32
2023-01-17T00:30:28.911Z,6.07
2023-01-17T00:32:55.731Z,6.13
2023-01-17T00:35:22.100Z,6.05
2023-01-17T00:37:48.400Z,6.15
2023-01-17T00:40:15.701Z,5.10
2023-01-17T00:42:42.505Z,6.75
2023-01-17T00:45:09.422Z,5.65
2023-01-17T00:47:36.165Z,6.07
2023-01-17T00:50:02.510Z,5.55
2023-01-17T00:52:29.412Z,6.18
2023-01-17T00:54:56.057Z,5.78
2023-01-17T00:57:23.003Z,5.78
2023-01-17T00:59:50.307Z,5.47
2023-01-17T01:02:16.781Z,5.63
2023-01-17T01:04:43.347Z,4.85
2023-01-17T01:07:10.275Z,5.45
2023-01-17T01:09:36.684Z,6.05
2023-01-17T01:12:03.149Z,5.30
2023-01-17T01:14:29.484Z,5.32
2023-01-17T01:16:56.077Z,4.38
2023-01-17T01:19:22.540Z,5.15
2023-01-17T01:21:49.223Z,4.85
2023-01-17T01:24:16.096Z,6.03
2023-01-17T01:26:42.649Z,5.32
2023-01-17T01:29:09.505Z,5.28
2023-01-17T01:31:36.157Z,5.35
2023-01-17T01:34:02.645Z,6.45
2023-01-17T01:36:29.584Z,5.15
2023-01-17T01:38:56.432Z,5.72
2023-01-17T01:41:23.463Z,5.53
2023-01-17T01:43:49.921Z,5.90
2023-01-17T01:46:16.219Z,5.72
2023-01-17T01:48:42.856Z,5.28
2023-01-17T01:51:09.665Z,5.95
2023-01-17T01:53:36.302Z,6.00
2023-01-17T01:56:02.601Z,4.90
2023-01-17T01:58:29.452Z,5.53
2023-01-17T02:00:56.420Z,5.28
2023-01-17T02:03:23.959Z,6.07
2023-01-17T02:05:50.720Z,6.30
2023-01-17T02:08:17.023Z,5.50
2023-01-17T02:10:43.638Z,5.85
2023-01-17T02:13:10.223Z,6.63
2023-01-17T02:15:36.656Z,4.93
2023-01-17T02:18:03.312Z,5.32
2023-01-17T02:20:30.318Z,5.60
2023-01-17T02:22:56.732Z,5.95
2023-01-17T02:25:23.333Z,4.97
2023-01-17T02:27:49.825Z,5.28
2023-01-17T02:30:16.609Z,5.35
2023-01-17T02:32:43.225Z,5.65
2023-01-17T02:35:10.165Z,5.25
2023-01-17T02:37:37.100Z,4.97
2023-01-17T02:40:03.597Z,4.80
2023-01-17T02:42:30.337Z,5.40
2023-01-17T02:44:56.769Z,4.95
2023-01-17T02:47:23.189Z,5.43
2023-01-17T02:49:49.753Z,5.00
2023-01-17T02:52:16.548Z,5.20
2023-01-17T02:54:42.920Z,4.75
2023-01-17T02:57:09.354Z,5.30
2023-01-17T02:59:35.938Z,4.40
2023-01-17T03:02:02.464Z,5.63
2023-01-17T03:04:29.136Z,6.03
2023-01-17T03:06:55.911Z,4.57
2023-01-17T03:09:22.597Z,5.38
2023-01-17T03:11:48.880Z,4.15
2023-01-17T03:14:15.933Z,4.95
2023-01-17T03:16:42.259Z,4.68
2023-01-17T03:19:09.276Z,5.00
2023-01-17T03:21:35.906Z,5.28
2023-01-17T03:24:02.477Z,5.55
2023-01-17T03:26:28.753Z,6.18
2023-01-17T03:28:55.159Z,5.05
2023-01-17T03:31:21.465Z,4.75
2023-01-17T03:33:47.853Z,4.57
2023-01-17T03:36:14.385Z,5.28
2023-01-17T03:38:41.303Z,4.50
2023-01-17T03:41:08.427Z,5.95
2023-01-17T03:43:35.848Z,4.50
2023-01-17T03:46:02.373Z,5.47
2023-01-17T03:48:29.134Z,5.25
2023-01-17T03:50:55.576Z,5.07
2023-01-17T03:53:21.977Z,4.70
2023-01-17T03:55:48.577Z,4.75
2023-01-17T03:58:14.944Z,4.80
2023-01-17T04:00:41.241Z,4.40
2023-01-17T04:03:08.156Z,4.95
2023-01-17T04:05:34.551Z,5.70
2023-01-17T04:08:00.967Z,4.95
2023-01-17T04:10:27.456Z,4.20
2023-01-17T04:12:54.005Z,4.00
2023-01-17T04:15:20.553Z,4.85
2023-01-17T04:17:46.950Z,4.82
2023-01-17T04:20:13.236Z,4.38
2023-01-17T04:22:39.813Z,4.45
2023-01-17T04:25:06.171Z,4.82
2023-01-17T04:27:32.492Z,3.78
2023-01-17T04:29:58.835Z,4.20
2023-01-17T04:32:25.165Z,4.22
2023-01-17T04:34:51.544Z,4.68
2023-01-17T04:37:18.203Z,5.30
2023-01-17T04:39:44.628Z,4.20
2023-01-17T04:42:11.000Z,4.72
2023-01-17T04:44:37.316Z,5.07
2023-01-17T04:47:03.656Z,4.65
2023-01-17T04:49:30.081Z,4.43
2023-01-17T04:51:56.525Z,4.25
2023-01-17T04:54:22.899Z,4.95
2023-01-17T04:56:49.549Z,4.40
2023-01-17T04:59:15.922Z,3.85
2023-01-17T05:01:42.738Z,3.50
2023-01-17T05:04:09.280Z,3.75
2023-01-17T05:06:35.650Z,3.47
2023-01-17T05:09:01.979Z,3.78
2023-01-17T05:11:28.553Z,3.63
2023-01-17T05:13:55.088Z,3.92
2023-01-17T05:16:21.420Z,4.05
2023-01-17T05:18:47.860Z,4.15
2023-01-17T05:21:14.597Z,3.55
2023-01-17T05:23:41.216Z,3.88
2023-01-17T05:26:07.668Z,3.47
2023-01-17T05:28:34.080Z,3.75
2023-01-17T05:31:00.741Z,3.35
2023-01-17T05:33:27.112Z,3.53
2023-01-17T05:35:53.519Z,3.33
2023-01-17T05:38:19.844Z,3.20
2023-01-17T05:40:46.421Z,3.35
2023-01-17T05:43:12.795Z,3.75
2023-01-17T05:45:39.534Z,4.00
2023-01-17T05:48:06.088Z,3.40
2023-01-17T05:50:32.727Z,2.85
2023-01-17T05:52:59.512Z,3.22
2023-01-17T05:55:26.008Z,4.20
2023-01-17T05:57:52.900Z,2.95
2023-01-17T06:00:19.217Z,3.92
2023-01-17T06:02:45.832Z,3.55
2023-01-17T06:05:12.404Z,3.63
2023-01-17T06:07:38.826Z,3.40
2023-01-17T06:10:05.468Z,3.15
2023-01-17T06:12:32.103Z,3.47
2023-01-17T06:14:59.117Z,3.17
2023-01-17T06:17:25.501Z,2.65
2023-01-17T06:19:51.840Z,2.67
2023-01-17T06:22:18.692Z,3.50
2023-01-17T06:24:45.211Z,3.03
2023-01-17T06:27:11.971Z,2.80
2023-01-17T06:29:38.796Z,2.85
2023-01-17T06:32:05.385Z,2.55
2023-01-17T06:34:31.786Z,2.97
2023-01-17T06:36:58.526Z,3.42
2023-01-17T06:39:25.402Z,2.75
2023-01-17T06:41:51.964Z,8.60
2023-01-17T06:44:18.745Z,4.22
2023-01-17T06:46:45.198Z,4.85
2023-01-17T06:49:11.712Z,2.67
2023-01-17T06:51:38.404Z,5.22
2023-01-17T06:54:04.916Z,6.30
2023-01-17T06:56:31.277Z,5.28
2023-01-17T06:58:57.588Z,3.33
2023-01-17T07:01:23.943Z,4.75
2023-01-17T07:06:22.452Z,3.20
2023-01-17T07:08:49.465Z,5.07
2023-01-17T07:11:16.661Z,7.80
2023-01-17T07:13:42.992Z,5.07
2023-01-17T07:16:09.930Z,4.18
2023-01-17T07:18:36.722Z,5.63
2023-01-17T07:21:03.106Z,7.47
2023-01-17T07:23:29.873Z,5.25
2023-01-17T07:25:56.662Z,4.72
2023-01-17T07:28:23.550Z,3.95
2023-01-17T07:30:49.902Z,8.32
2023-01-17T07:33:16.663Z,3.78
2023-01-17T07:35:43.037Z,6.03
2023-01-17T07:38:09.867Z,4.00
2023-01-17T07:40:41.725Z,7.25
2023-01-17T07:43:08.506Z,4.93
2023-01-17T07:45:34.877Z,6.38
2023-01-17T07:48:01.296Z,6.10
2023-01-17T07:50:27.908Z,6.95
2023-01-17T07:52:54.232Z,8.65
2023-01-17T07:55:20.576Z,6.57
2023-01-17T07:57:46.892Z,4.45
2023-01-17T08:00:13.883Z,7.97
2023-01-17T08:02:40.732Z,6.20
2023-01-17T08:05:07.615Z,8.30
2023-01-17T08:07:34.184Z,5.65
2023-01-17T08:10:00.586Z,5.93
2023-01-17T08:12:27.127Z,10.02
2023-01-17T08:14:53.508Z,8.55
2023-01-17T08:17:19.995Z,10.98
2023-01-17T08:19:46.750Z,17.88
2023-01-17T08:22:13.589Z,16.67
2023-01-17T08:24:40.126Z,17.30
2023-01-17T08:27:06.469Z,16.63
2023-01-17T08:29:32.892Z,19.27
2023-01-17T08:31:59.327Z,27.73
2023-01-17T08:34:25.705Z,23.40
2023-01-17T08:36:52.434Z,23.20
2023-01-17T08:39:19.284Z,21.33
2023-01-17T08:41:46.059Z,28.45
2023-01-17T08:44:13.024Z,34.85
2023-01-17T08:46:39.400Z,31.45
2023-01-17T08:49:05.784Z,31.15
2023-01-17T08:51:32.175Z,29.92
2023-01-17T08:53:58.542Z,32.72
2023-01-17T08:56:25.792Z,41.28
2023-01-17T08:58:52.102Z,30.63
2023-01-17T09:01:18.579Z,34.03
2023-01-17T09:03:45.390Z,36.92
2023-01-17T09:06:12.198Z,31.92
2023-01-17T09:08:38.476Z,38.90
2023-01-17T09:11:05.134Z,40.13
2023-01-17T09:13:31.897Z,38.67
2023-01-17T09:15:58.482Z,41.40
2023-01-17T09:18:25.466Z,38.45
2023-01-17T09:20:52.369Z,45.97
2023-01-17T09:23:18.893Z,49.05
2023-01-17T09:25:45.397Z,48.72
2023-01-17T09:28:12.512Z,51.10
2023-01-17T09:30:39.220Z,46.60
2023-01-17T09:33:05.703Z,42.42
2023-01-17T09:35:32.084Z,53.47
2023-01-17T09:37:58.370Z,47.17
2023-01-17T09:40:24.779Z,52.40
2023-01-17T09:42:51.665Z,60.35
2023-01-17T09:45:18.100Z,54.58
2023-01-17T09:47:45.024Z,47.05
2023-01-17T09:50:11.546Z,52.97
2023-01-17T09:52:37.933Z,50.80
2023-01-17T09:55:05.658Z,43.97
2023-01-17T09:57:33.744Z,50.58
2023-01-17T10:00:03.508Z,51.17
2023-01-17T10:02:30.761Z,43.70
2023-01-17T10:04:57.274Z,42.33
2023-01-17T10:07:23.730Z,53.05
2023-01-17T10:09:50.090Z,50.25
2023-01-17T10:12:16.738Z,53.25
2023-01-17T10:14:44.271Z,57.83
2023-01-17T10:17:11.026Z,58.28
2023-01-17T10:19:37.539Z,64.20
2023-01-17T10:22:04.859Z,53.17
2023-01-17T10:24:31.474Z,60.67
2023-01-17T10:26:58.023Z,58.08
2023-01-17T10:29:24.420Z,51.50
2023-01-17T10:31:50.814Z,53.92
2023-01-17T10:34:17.183Z,56.72
2023-01-17T10:36:44.288Z,51.88
2023-01-17T10:39:10.709Z,55.20
2023-01-17T10:41:37.811Z,58.00
2023-01-17T10:55:30.202Z,58.65
2023-01-17T10:57:56.991Z,61.15
2023-01-17T11:00:23.698Z,59.53
2023-01-17T11:02:50.565Z,61.80
2023-01-17T11:05:16.935Z,58.80
2023-01-17T11:07:43.653Z,58.78
2023-01-17T11:10:09.939Z,56.35
2023-01-17T11:12:36.362Z,67.70
2023-01-17T11:15:03.094Z,63.97
2023-01-17T11:17:30.011Z,62.60
2023-01-17T11:19:56.716Z,58.13
2023-01-17T11:22:23.299Z,52.58
2023-01-17T11:24:50.359Z,56.30
2023-01-17T11:27:17.258Z,55.45
2023-01-17T11:29:44.186Z,52.85
2023-01-17T11:32:11.124Z,50.65
2023-01-17T11:34:37.419Z,54.78
2023-01-17T11:37:03.829Z,53.55
2023-01-17T11:39:30.357Z,48.50
2023-01-17T11:41:56.987Z,50.22
2023-01-17T11:44:23.403Z,51.58
2023-01-17T11:46:49.731Z,50.58
2023-01-17T11:49:16.742Z,48.63
2023-01-17T11:51:43.579Z,48.92
2023-01-17T11:54:09.925Z,45.38
2023-01-17T11:56:36.265Z,45.63
2023-01-17T11:59:03.239Z,46.65
2023-01-17T12:01:29.597Z,47.20
2023-01-17T12:03:56.045Z,41.03
2023-01-17T12:06:22.464Z,42.50
2023-01-17T12:08:49.368Z,45.00
2023-01-17T12:11:15.757Z,45.38
2023-01-17T12:13:42.330Z,45.30
2023-01-17T12:16:09.412Z,45.10
2023-01-17T12:18:35.830Z,41.15
2023-01-17T12:21:02.219Z,41.38
2023-01-17T12:23:28.573Z,45.70
2023-01-17T12:25:55.157Z,41.15
2023-01-17T12:28:21.995Z,36.15
2023-01-17T12:30:48.329Z,38.65
2023-01-17T12:33:14.862Z,35.40
2023-01-17T12:35:41.172Z,35.53
2023-01-17T12:38:07.817Z,34.85
2023-01-17T12:40:34.124Z,31.52
2023-01-17T12:43:00.960Z,31.75
2023-01-17T12:45:27.305Z,36.08
2023-01-17T12:47:54.023Z,30.10
2023-01-17T12:50:20.345Z,30.00
2023-01-17T12:52:46.631Z,33.00
2023-01-17T12:55:13.325Z,28.13
2023-01-17T12:57:39.755Z,26.83
2023-01-17T13:00:06.136Z,27.52
2023-01-17T13:02:32.549Z,29.50
2023-01-17T13:04:59.388Z,28.45
2023-01-17T13:07:25.748Z,28.00
2023-01-17T13:09:52.292Z,24.80
2023-01-17T13:12:18.963Z,30.35
2023-01-17T13:14:45.737Z,25.90
2023-01-17T13:17:12.190Z,31.00
2023-01-17T13:19:38.691Z,26.70
2023-01-17T13:22:05.040Z,29.40
2023-01-17T13:24:31.424Z,26.45
2023-01-17T13:26:57.789Z,27.73
2023-01-17T13:29:24.531Z,27.20
2023-01-17T13:31:51.101Z,25.73
2023-01-17T13:34:17.415Z,27.38
2023-01-17T13:36:43.873Z,26.38
2023-01-17T13:39:10.280Z,26.60
2023-01-17T13:41:36.584Z,25.80
2023-01-17T13:44:02.970Z,25.73
2023-01-17T13:46:29.414Z,24.15
2023-01-17T13:48:55.829Z,23.10
2023-01-17T13:51:22.185Z,26.95
2023-01-17T13:53:49.289Z,23.75
2023-01-17T13:56:16.117Z,21.52
2023-01-17T13:58:42.818Z,26.45
2023-01-17T14:01:09.331Z,20.90
2023-01-17T14:03:36.192Z,23.52
2023-01-17T14:06:02.631Z,22.60
2023-01-17T14:08:28.945Z,25.60
2023-01-17T14:10:55.735Z,24.95
2023-01-17T14:13:22.452Z,22.17
2023-01-17T14:15:49.099Z,23.17
2023-01-17T14:18:15.617Z,22.40
2023-01-17T14:20:42.051Z,23.25
2023-01-17T14:23:08.509Z,23.63
2023-01-17T14:25:35.506Z,22.92
2023-01-17T14:28:02.198Z,22.67
2023-01-17T14:30:28.919Z,25.92
2023-01-17T14:32:55.805Z,20.75
2023-01-17T14:35:22.317Z,24.23
2023-01-17T14:37:49.222Z,21.63
2023-01-17T14:40:16.402Z,21.10
2023-01-17T14:42:43.789Z,20.60
2023-01-17T14:45:10.501Z,21.83
2023-01-17T14:47:38.375Z,20.77
2023-01-17T14:50:05.609Z,22.58
2023-01-17T14:52:32.380Z,21.25
2023-01-17T14:54:59.205Z,20.75
2023-01-17T14:57:26.538Z,20.20
2023-01-17T14:59:53.667Z,22.58
2023-01-17T15:02:21.084Z,21.63
2023-01-17T15:04:48.376Z,25.15
2023-01-17T15:07:15.428Z,22.38
2023-01-17T15:09:42.049Z,21.13
2023-01-17T15:12:09.383Z,22.17
2023-01-17T15:14:36.419Z,22.48
2023-01-17T15:17:03.582Z,19.92
2023-01-17T15:19:31.118Z,19.70
2023-01-17T15:21:58.359Z,20.65
2023-01-17T15:24:25.333Z,20.15
2023-01-17T15:26:52.350Z,20.42
2023-01-17T15:29:20.144Z,19.27
2023-01-17T15:31:47.187Z,18.52
2023-01-17T15:34:14.256Z,19.90
2023-01-17T15:36:43.797Z,19.85
2023-01-17T15:39:10.737Z,19.75
2023-01-17T15:41:38.417Z,19.92
2023-01-17T15:44:05.828Z,16.95
2023-01-17T15:46:32.735Z,17.70
2023-01-17T15:49:00.051Z,18.73
2023-01-17T15:51:27.299Z,18.50
2023-01-17T15:53:54.149Z,17.55
2023-01-17T15:56:20.999Z,16.58
2023-01-17T15:58:48.028Z,16.80
2023-01-17T16:01:15.471Z,16.42
2023-01-17T16:03:43.039Z,15.05
2023-01-17T16:06:10.290Z,16.38
2023-01-17T16:08:38.893Z,16.80
2023-01-17T16:11:06.260Z,16.35
2023-01-17T16:13:33.719Z,15.00
2023-01-17T16:16:09.664Z,15.00
2023-01-17T16:18:37.458Z,13.98
2023-01-17T16:21:04.489Z,14.85
2023-01-17T16:23:32.122Z,15.02
2023-01-17T16:25:59.043Z,17.00
2023-01-17T16:28:25.995Z,15.05
2023-01-17T16:30:53.399Z,15.18
2023-01-17T16:33:21.111Z,13.52
2023-01-17T16:35:48.020Z,14.30
2023-01-17T16:38:15.744Z,13.32
2023-01-17T16:40:44.011Z,12.43
2023-01-17T16:43:11.182Z,15.27
2023-01-17T16:45:38.534Z,13.57
2023-01-17T16:48:06.818Z,12.80
2023-01-17T16:50:34.519Z,10.88
2023-01-17T16:53:02.197Z,11.90
2023-01-17T16:55:34.976Z,12.80
2023-01-17T16:58:05.000Z,11.52
2023-01-17T17:00:36.895Z,12.75
2023-01-17T17:03:08.574Z,11.98
2023-01-17T17:05:48.155Z,12.77
2023-01-17T17:08:17.731Z,10.43
2023-01-17T17:16:03.572Z,11.15
2023-01-17T17:21:18.929Z,10.75
2023-01-17T17:26:20.801Z,9.70
2023-01-17T17:28:54.787Z,9.40
2023-01-17T17:31:28.538Z,9.93
2023-01-17T17:34:00.395Z,9.88
2023-01-17T17:36:46.211Z,10.93
2023-01-17T17:39:13.791Z,10.00
2023-01-17T17:41:40.418Z,9.77
2023-01-17T17:44:10.651Z,9.57
2023-01-17T17:46:38.573Z,59.70
2023-01-17T17:49:05.769Z,132.00
2023-01-17T17:54:19.145Z,157.18
2023-01-17T17:56:58.235Z,160.00
2023-01-17T18:02:00.549Z,148.23
2023-01-17T18:04:27.069Z,141.43
2023-01-17T18:09:27.562Z,127.70
2023-01-17T18:11:53.857Z,180.35
2023-01-17T18:14:20.700Z,229.00
2023-01-17T18:16:47.699Z,230.40
2023-01-17T18:19:14.013Z,219.55
2023-01-17T18:21:40.410Z,217.55
2023-01-17T18:24:07.606Z,213.30
2023-01-17T18:26:33.968Z,197.23
2023-01-17T18:29:00.752Z,193.05
2023-01-17T18:31:27.818Z,182.75
2023-01-17T18:33:54.475Z,299.05
2023-01-17T18:36:21.009Z,234.00
2023-01-17T18:38:47.513Z,233.80
2023-01-17T18:41:13.953Z,271.13
2023-01-17T18:43:40.804Z,274.80
2023-01-17T18:46:07.117Z,267.20
2023-01-17T18:48:33.956Z,249.38
2023-01-17T18:51:00.926Z,235.77
2023-01-17T18:53:27.777Z,234.45
2023-01-17T18:55:56.930Z,225.60
2023-01-17T18:58:23.457Z,211.65
2023-01-17T19:00:49.852Z,210.48
2023-01-17T19:03:16.878Z,198.45
2023-01-17T19:05:43.498Z,195.65
2023-01-17T19:08:09.852Z,186.07
2023-01-17T19:10:36.247Z,177.75
2023-01-17T19:13:02.891Z,174.25
2023-01-17T19:15:29.490Z,168.95
2023-01-17T19:17:56.573Z,158.98
2023-01-17T19:20:23.393Z,159.50
2023-01-17T19:22:49.849Z,150.77
2023-01-17T19:25:16.518Z,144.25
2023-01-17T19:27:43.282Z,140.93
2023-01-17T19:30:09.984Z,138.32
2023-01-17T19:32:36.413Z,136.75
2023-01-17T19:35:02.773Z,162.20
2023-01-17T19:37:29.181Z,218.50
2023-01-17T19:39:55.551Z,269.15
2023-01-17T19:42:22.468Z,275.38
2023-01-17T19:44:49.439Z,258.23
2023-01-17T19:47:15.828Z,256.27
2023-01-17T19:49:42.341Z,237.55
2023-01-17T19:52:09.007Z,221.25
2023-01-17T19:54:35.588Z,221.77
2023-01-17T19:57:02.046Z,213.20
2023-01-17T19:59:28.335Z,203.45
2023-01-17T20:01:54.756Z,192.27
2023-01-17T20:04:21.109Z,184.82
2023-01-17T20:06:47.621Z,211.77
2023-01-17T20:09:13.964Z,267.60
2023-01-17T20:14:13.302Z,318.10
2023-01-17T20:16:40.353Z,306.15
2023-01-17T20:19:07.818Z,304.88
2023-01-17T20:21:35.177Z,292.08
2023-01-17T20:24:02.168Z,275.13
2023-01-17T20:26:29.294Z,270.35
2023-01-17T20:28:56.356Z,263.63
2023-01-17T20:31:26.665Z,263.65
2023-01-17T20:33:53.884Z,238.50
2023-01-17T20:36:25.967Z,224.10
2023-01-17T20:38:52.411Z,243.85
2023-01-17T20:41:18.995Z,308.65
2023-01-17T20:43:45.592Z,387.05
2023-01-17T20:46:12.217Z,421.30
2023-01-17T20:48:39.613Z,436.33
2023-01-17T20:51:06.144Z,434.83
2023-01-17T20:53:33.279Z,424.58
2023-01-17T20:56:00.299Z,418.30
2023-01-17T20:58:27.371Z,408.30
2023-01-17T21:00:54.371Z,396.17
2023-01-17T21:03:20.928Z,392.95
2023-01-17T21:05:47.412Z,384.98
2023-01-17T21:08:14.184Z,369.92
2023-01-17T21:13:25.647Z,353.75
2023-01-17T21:15:52.580Z,340.83
2023-01-17T21:18:19.574Z,336.08
2023-01-17T21:20:46.198Z,331.00
2023-01-17T21:23:13.604Z,321.05
2023-01-17T21:25:41.769Z,317.77
2023-01-17T21:28:08.422Z,305.50
2023-01-17T21:30:35.226Z,391.58
2023-01-17T21:33:05.624Z,490.52
2023-01-17T21:35:35.504Z,511.70
2023-01-17T21:38:02.767Z,498.67
2023-01-17T21:40:29.632Z,460.35
2023-01-17T21:42:56.510Z,447.38
2023-01-17T21:45:23.114Z,441.38
2023-01-17T21:47:49.748Z,438.60
2023-01-17T21:50:32.093Z,435.40
2023-01-17T21:52:59.486Z,425.70
2023-01-17T21:55:26.282Z,414.67
2023-01-17T21:57:53.133Z,408.85
2023-01-17T22:00:21.034Z,399.15
2023-01-17T22:02:47.818Z,395.38
2023-01-17T22:05:14.578Z,395.85
2023-01-17T22:07:41.750Z,511.73
2023-01-17T22:10:08.913Z,492.30
2023-01-17T22:12:35.969Z,456.65
2023-01-17T22:15:02.716Z,422.23
2023-01-17T22:17:29.431Z,407.70
2023-01-17T22:19:56.188Z,403.98
2023-01-17T22:22:22.687Z,396.90
2023-01-17T22:24:49.454Z,416.58
2023-01-17T22:27:16.882Z,569.83
2023-01-17T22:29:43.861Z,579.10
2023-01-17T22:32:10.513Z,538.28
2023-01-17T22:34:37.045Z,526.63
2023-01-17T22:37:03.865Z,504.90
2023-01-17T22:39:31.701Z,585.08
2023-01-17T22:41:58.816Z,638.45
2023-01-17T22:44:25.764Z,633.20
2023-01-17T22:46:52.727Z,589.13
2023-01-17T22:49:19.894Z,557.90
2023-01-17T22:51:46.648Z,527.58
2023-01-17T22:54:13.308Z,515.47
2023-01-17T22:56:39.975Z,505.67
2023-01-17T22:59:06.783Z,504.20
2023-01-17T23:01:33.555Z,492.00
2023-01-17T23:04:00.516Z,494.35
2023-01-17T23:06:26.992Z,474.08
2023-01-17T23:08:54.282Z,471.95
2023-01-17T23:11:21.504Z,454.23
2023-01-17T23:13:47.999Z,452.90
2023-01-17T23:16:14.803Z,453.25
2023-01-17T23:18:41.542Z,449.45
2023-01-17T23:21:08.276Z,437.45
2023-01-17T23:23:35.054Z,436.98
2023-01-17T23:26:01.793Z,424.23
2023-01-17T23:28:28.718Z,418.70
2023-01-17T23:30:55.446Z,414.70
2023-01-17T23:33:21.918Z,413.45
2023-01-17T23:35:48.657Z,405.60
2023-01-17T23:38:15.249Z,398.95
2023-01-17T23:40:41.795Z,396.83
2023-01-17T23:43:08.540Z,394.63
2023-01-17T23:45:35.121Z,378.33
2023-01-17T23:48:01.787Z,383.52
2023-01-17T23:50:28.647Z,378.40
2023-01-17T23:52:55.487Z,364.08
2023-01-17T23:55:22.308Z,364.58
2023-01-17T23:57:49.222Z,354.55
